Accueil
METAR-TAF:

METAR-TAF

Aéroports :

Aéroport de Poitiers-Biard

Poitiers, France

latitude: 46-35N, longitude: 000-19E, altitude: 129 m

Observation

Le bulletin a été fait il y a 25 minutes, à 19:00 UTC
Vent 10 kt de nord
Température 15°C
Humidité 82%
Pression 1023 hPa
Visibilité: 7000 m

METAR: LFBI 191900Z AUTO 01010KT 7000 NSC 15/12 Q1023 NOSIG

Heure: 21:25 (19:25 UTC)

Prévision

Le bulletin a été fait il y a 2 heures et 25 minutes, à 17:00 UTC
Prévision valable du 19 à 18 UTC au 20 à 18 UTC
Vent 10 kt de nord/nord-est
Visibilité 10 km ou plus
pas de nuages en-dessous de 1500 mètres et pas de cumulonimbus.
Probabilité 40%
du 20 à 03 UTC au 20 à 08 UTC
Visibilité: 3000 m
Nuages fragmentés à une hauteur de 300 ft
brume

TAF: LFBI 191700Z 1918/2018 03010KT CAVOK PROB40 2003/2008 3000 BR BKN003

Observations et prévisions météorologiques de plus de 4000 aéroports (messages METAR et TAF).

Les stations disponibles sont représentées par des disques jaunes et rouges sur la carte.

Passer la souris dessus pour voir le nom de la station.

Cliquer dessus pour voir les observations et prévisions météorologiques.

Pour changer de carte: cliquez sur les boutons verts avec une croix noire pour zoomer, sur le bouton vert avec un tiret pour effectuer un zoom arrière, ou sur les flèches vertes pour les cartes adjacentes.


METAR-TAF: